Air Quality Table

TIMESTAMP NO2 SO2 PM10 PM2.5 CO TEMP HUM AIRPRES WS WD NO
2023-06-08 02:00 10.33 µg/m3 0.12 µg/m3 25.52 µg/m3 12.7 µg/m3 N/A 20.68 °C 82.11 % 1,013.42 mbar 0.95 m/s 264.45 Deg -0.01 µg/m3
2023-06-08 01:00 12.12 µg/m3 -0.89 µg/m3 21.47 µg/m3 10.45 µg/m3 N/A 20.9 °C 81.06 % 1,013.75 mbar 1.3 m/s 286.97 Deg 0.42 µg/m3
2023-06-08 00:00 11.51 µg/m3 -0.54 µg/m3 24.28 µg/m3 11.89 µg/m3 N/A 20.96 °C 84.43 % 1,014.04 mbar 0.93 m/s 322.83 Deg 0.02 µg/m3
2023-06-07 23:00 12.13 µg/m3 -0.56 µg/m3 24.57 µg/m3 11.91 µg/m3 N/A 21.12 °C 85 % 1,014.12 mbar 1.22 m/s 294.78 Deg 1.32 µg/m3
2023-06-07 22:00 7.53 µg/m3 -0.52 µg/m3 25.26 µg/m3 11.77 µg/m3 N/A 21.49 °C 80.6 % 1,013.99 mbar 0.99 m/s 309.77 Deg 0.68 µg/m3
2023-06-07 21:00 12.85 µg/m3 -0.97 µg/m3 24.52 µg/m3 11.36 µg/m3 N/A 21.64 °C 78.58 % 1,013.80 mbar 1.06 m/s 246.13 Deg 0.44 µg/m3
2023-06-07 20:00 22.25 µg/m3 -0.4 µg/m3 28.75 µg/m3 12.44 µg/m3 N/A 22 °C 76.16 % 1,013.36 mbar 0.99 m/s 335.85 Deg 2.76 µg/m3
2023-06-07 19:00 15.78 µg/m3 -0.56 µg/m3 27.85 µg/m3 11.32 µg/m3 N/A 22.81 °C 71.35 % 1,013.05 mbar 1.15 m/s 260.51 Deg 0.88 µg/m3
2023-06-07 18:00 24.23 µg/m3 -0.7 µg/m3 30.37 µg/m3 11.08 µg/m3 N/A 23.87 °C 65.15 % 1,012.83 mbar 0.86 m/s 181.38 Deg 3.5 µg/m3
2023-06-07 17:00 19.28 µg/m3 -0.06 µg/m3 31.08 µg/m3 12.64 µg/m3 N/A 24.13 °C 64.46 % 1,012.92 mbar 0.87 m/s 271.89 Deg 2.73 µg/m3
2023-06-07 16:00 15.58 µg/m3 0.31 µg/m3 27.72 µg/m3 11.41 µg/m3 N/A 23.4 °C 69.47 % 1,013.14 mbar 1.32 m/s 50.69 Deg 2.6 µg/m3
2023-06-07 15:00 24.59 µg/m3 0.32 µg/m3 34.36 µg/m3 10.72 µg/m3 N/A 24.36 °C 61.69 % 1,013.46 mbar 0.89 m/s 262.97 Deg 6.15 µg/m3
2023-06-07 14:00 14.69 µg/m3 -0.31 µg/m3 45.73 µg/m3 10.74 µg/m3 N/A 24.3 °C 59.41 % 1,013.68 mbar 0.84 m/s 254.1 Deg 4.55 µg/m3
2023-06-07 13:00 12.74 µg/m3 -0.19 µg/m3 35.3 µg/m3 10.72 µg/m3 N/A 23.57 °C 66.08 % 1,013.84 mbar 1.2 m/s 340.78 Deg 3.34 µg/m3
2023-06-07 12:00 20.38 µg/m3 -0.09 µg/m3 48.56 µg/m3 11.85 µg/m3 N/A 23.25 °C 65.58 % 1,013.87 mbar 1.42 m/s 345.72 Deg 5.45 µg/m3
2023-06-07 11:00 19.51 µg/m3 0.07 µg/m3 120.24 µg/m3 19.86 µg/m3 N/A 22.81 °C 69.26 % 1,013.87 mbar 1.38 m/s 263.53 Deg 5.34 µg/m3
2023-06-07 10:00 16.43 µg/m3 0.05 µg/m3 77.27 µg/m3 15.69 µg/m3 N/A 22.3 °C 74.03 % 1,013.57 mbar 1.25 m/s 183.54 Deg 4.15 µg/m3
2023-06-07 09:00 16.79 µg/m3 -0.26 µg/m3 41.82 µg/m3 11.71 µg/m3 N/A 21.93 °C 75.15 % 1,013.40 mbar 1.39 m/s 260.17 Deg 4.06 µg/m3
2023-06-07 08:00 22.82 µg/m3 -0.43 µg/m3 34.26 µg/m3 11.17 µg/m3 N/A 21.79 °C 76.15 % 1,013.65 mbar 0.94 m/s 251.38 Deg 10.72 µg/m3
2023-06-07 07:00 16.72 µg/m3 -0.28 µg/m3 25.76 µg/m3 11.88 µg/m3 N/A 20.86 °C 82.55 % 1,013.48 mbar 0.99 m/s 329.14 Deg 2.32 µg/m3
2023-06-07 06:00 15.58 µg/m3 -0.15 µg/m3 25.85 µg/m3 12.32 µg/m3 N/A 20.31 °C 86.33 % 1,013.08 mbar 0.79 m/s 348.68 Deg 1.28 µg/m3
2023-06-07 05:00 20.22 µg/m3 -1.07 µg/m3 24.47 µg/m3 12.21 µg/m3 N/A 20.14 °C 88.45 % 1,012.83 mbar 1.49 m/s 262.01 Deg 1.45 µg/m3
2023-06-07 04:00 10.51 µg/m3 -0.46 µg/m3 21.67 µg/m3 10.45 µg/m3 N/A 20.01 °C 90.49 % 1,012.55 mbar 1.16 m/s 253.26 Deg 0.93 µg/m3
2023-06-07 03:00 11.74 µg/m3 -0.3 µg/m3 22.6 µg/m3 11.21 µg/m3 N/A 20.09 °C 90.51 % 1,012.72 mbar 1.61 m/s 242.78 Deg 0.42 µg/m3
2023-06-07 02:00 9.81 µg/m3 -0.39 µg/m3 20.98 µg/m3 10.16 µg/m3 N/A 20.53 °C 87.27 % 1,013.09 mbar 1.6 m/s 177.1 Deg 0.26 µg/m3
2023-06-07 01:00 4.01 µg/m3 -0.43 µg/m3 20.41 µg/m3 9.76 µg/m3 N/A 20.38 °C 90.14 % 1,013.28 mbar 1.19 m/s 175.81 Deg 0.32 µg/m3
2023-06-07 00:00 17.24 µg/m3 -0.58 µg/m3 23.6 µg/m3 11.65 µg/m3 N/A 20.36 °C 94.34 % 1,013.56 mbar 1.23 m/s 176.84 Deg 0.6 µg/m3
2023-06-06 23:00 14.38 µg/m3 -0.19 µg/m3 24.25 µg/m3 11.66 µg/m3 N/A 20.42 °C 95.06 % 1,013.69 mbar 1.3 m/s 174.52 Deg 0.6 µg/m3
2023-06-06 22:00 11 µg/m3 -0.24 µg/m3 25.46 µg/m3 12.66 µg/m3 N/A 20.53 °C 94.41 % 1,013.45 mbar 1.18 m/s 322.55 Deg 0.43 µg/m3
2023-06-06 21:00 19.2 µg/m3 -0.39 µg/m3 23.76 µg/m3 11.38 µg/m3 N/A 20.61 °C 90.85 % 1,013.14 mbar 1.08 m/s 195.48 Deg 0.73 µg/m3
2023-06-06 20:00 25.76 µg/m3 0.28 µg/m3 19.56 µg/m3 8.82 µg/m3 N/A 20.45 °C 85.8 % 1,012.59 mbar 1.21 m/s 195.84 Deg 1.7 µg/m3
2023-06-06 19:00 46.91 µg/m3 0.19 µg/m3 24.05 µg/m3 8.77 µg/m3 N/A 20.83 °C 78.17 % 1,012.25 mbar 1.02 m/s 268.96 Deg 6.38 µg/m3
2023-06-06 18:00 11.28 µg/m3 0.19 µg/m3 23.97 µg/m3 8.32 µg/m3 N/A 21.28 °C 72.61 % 1,012.03 mbar 0.83 m/s 33.41 Deg 1.1 µg/m3
2023-06-06 17:00 7.79 µg/m3 0.16 µg/m3 26.66 µg/m3 8.87 µg/m3 N/A 21.31 °C 72.78 % 1,011.89 mbar 1.07 m/s 242.26 Deg 1.27 µg/m3
2023-06-06 16:00 15.7 µg/m3 0.63 µg/m3 33.53 µg/m3 9.89 µg/m3 N/A 21.83 °C 72.35 % 1,012.18 mbar 1.17 m/s 272.64 Deg 3.44 µg/m3
2023-06-06 15:00 22.85 µg/m3 0.07 µg/m3 36.22 µg/m3 12.11 µg/m3 N/A 21.6 °C 77.55 % 1,012.38 mbar 1.15 m/s 247.77 Deg 4.62 µg/m3
2023-06-06 14:00 19.41 µg/m3 0.21 µg/m3 36.92 µg/m3 11.96 µg/m3 N/A 21.41 °C 77.87 % 1,012.69 mbar 1.25 m/s 230.68 Deg 4.29 µg/m3
2023-06-06 13:00 7.01 µg/m3 0.49 µg/m3 45.46 µg/m3 13.56 µg/m3 N/A 21.48 °C 78.69 % 1,012.92 mbar 1.23 m/s 258.29 Deg 1.09 µg/m3
2023-06-06 12:00 8.98 µg/m3 0.3 µg/m3 32.97 µg/m3 13.81 µg/m3 N/A 21.23 °C 81.96 % 1,012.99 mbar 1.35 m/s 156.65 Deg 2.42 µg/m3
2023-06-06 11:00 21.01 µg/m3 0.61 µg/m3 56.18 µg/m3 15.91 µg/m3 N/A 21.62 °C 79.07 % 1,013.11 mbar 0.96 m/s 298.98 Deg 5.73 µg/m3
2023-06-06 10:00 15.19 µg/m3 0.74 µg/m3 35.98 µg/m3 16.81 µg/m3 N/A 21.04 °C 84.45 % 1,013.05 mbar 0.94 m/s 261.94 Deg 4.46 µg/m3
2023-06-06 09:00 36.85 µg/m3 0.28 µg/m3 36.49 µg/m3 17.06 µg/m3 N/A 20.97 °C 83.46 % 1,013.27 mbar 0.69 m/s 284.38 Deg 6.52 µg/m3
2023-06-06 08:00 42.21 µg/m3 0.15 µg/m3 43 µg/m3 15.99 µg/m3 N/A 20.93 °C 79.27 % 1,011.97 mbar 0.82 m/s 270.03 Deg 5.04 µg/m3
2023-06-06 07:00 41.84 µg/m3 1.41 µg/m3 40.51 µg/m3 14.06 µg/m3 N/A 20.64 °C 77.6 % 1,010.66 mbar 1.21 m/s 246.42 Deg 4.48 µg/m3
2023-06-06 06:00 29.42 µg/m3 0.03 µg/m3 34.21 µg/m3 13.06 µg/m3 N/A 20.51 °C 77.64 % 1,010.01 mbar 1.5 m/s 266.21 Deg 2.64 µg/m3
2023-06-06 05:00 31.01 µg/m3 -0.94 µg/m3 29.9 µg/m3 12.96 µg/m3 N/A 20.52 °C 77.93 % 1,010.45 mbar 1.39 m/s 254.69 Deg 3.18 µg/m3
2023-06-06 04:00 46.05 µg/m3 -0.13 µg/m3 29.52 µg/m3 12.98 µg/m3 N/A 20.79 °C 75.66 % 1,010.76 mbar 1.36 m/s 251.02 Deg 3.74 µg/m3
2023-06-06 03:00 33.39 µg/m3 0.02 µg/m3 31.67 µg/m3 14.96 µg/m3 N/A 20.83 °C 81.88 % 1,010.95 mbar 1.26 m/s 251.23 Deg 2.07 µg/m3
2023-06-06 02:00 28.82 µg/m3 -0.87 µg/m3 40.13 µg/m3 18.93 µg/m3 N/A 21.05 °C 83.8 % 1,011.70 mbar 0.67 m/s 234.84 Deg 1.69 µg/m3
2023-06-06 01:00 26.37 µg/m3 -1.89 µg/m3 39.71 µg/m3 18.19 µg/m3 N/A 21.24 °C 80.34 % 1,010.63 mbar 1.09 m/s 228.88 Deg 1.14 µg/m3
2023-06-06 00:00 20.37 µg/m3 -1.72 µg/m3 44.98 µg/m3 17.77 µg/m3 N/A 21.55 °C 76.41 % 1,009.82 mbar 1.37 m/s 272.96 Deg 0.39 µg/m3
2023-06-05 23:00 15.14 µg/m3 -1.15 µg/m3 34.9 µg/m3 16.61 µg/m3 N/A 21.18 °C 82.35 % 1,008.59 mbar 2.09 m/s 256.39 Deg 1.07 µg/m3
2023-06-05 22:00 20.59 µg/m3 -1.3 µg/m3 30.58 µg/m3 14.56 µg/m3 N/A 20.94 °C 85.87 % 1,009.60 mbar 2.17 m/s 257.96 Deg 1.92 µg/m3
2023-06-05 21:00 16.91 µg/m3 -1.11 µg/m3 31.46 µg/m3 14.79 µg/m3 N/A 20.94 °C 89.59 % 1,011.74 mbar 1.67 m/s 253.48 Deg 0.99 µg/m3
2023-06-05 20:00 23.39 µg/m3 -1.27 µg/m3 31.82 µg/m3 14.9 µg/m3 N/A 21.12 °C 88.46 % 1,010.41 mbar 1.5 m/s 253.86 Deg 2.61 µg/m3
2023-06-05 19:00 28.5 µg/m3 0.33 µg/m3 33.04 µg/m3 15.52 µg/m3 N/A 21.29 °C 87 % 1,010.08 mbar 1.61 m/s 261.01 Deg 4.31 µg/m3
2023-06-05 18:00 22.83 µg/m3 -0.45 µg/m3 32.56 µg/m3 15.15 µg/m3 N/A 21.43 °C 85.44 % 1,010.31 mbar 1.53 m/s 287.06 Deg 2.57 µg/m3
2023-06-05 17:00 10.47 µg/m3 0.65 µg/m3 32.16 µg/m3 14.89 µg/m3 N/A 21.58 °C 84.31 % 1,010.56 mbar 1.46 m/s 292.88 Deg 2.41 µg/m3
2023-06-05 16:00 12.45 µg/m3 -0.51 µg/m3 38.73 µg/m3 14.54 µg/m3 N/A 22.28 °C 81.36 % 1,010.54 mbar 1.51 m/s 269.14 Deg 2.73 µg/m3
2023-06-05 15:00 16.65 µg/m3 -0.9 µg/m3 36.68 µg/m3 14.87 µg/m3 N/A 22.43 °C 83.31 % 1,010.47 mbar 1.44 m/s 236.12 Deg 5.11 µg/m3
2023-06-05 14:00 12.67 µg/m3 -0.55 µg/m3 31.23 µg/m3 14.44 µg/m3 N/A 21.89 °C 86.82 % 1,010.92 mbar 1.68 m/s 220.16 Deg 2.48 µg/m3
2023-06-05 13:00 10.26 µg/m3 0.68 µg/m3 29.66 µg/m3 13.75 µg/m3 N/A 21.69 °C 87.93 % 1,011.24 mbar 1.79 m/s 278.48 Deg 2.57 µg/m3
2023-06-05 12:00 21.65 µg/m3 0.9 µg/m3 27.82 µg/m3 12.8 µg/m3 N/A 21.44 °C 89.17 % 1,011.45 mbar 1.79 m/s 245.08 Deg 5.51 µg/m3
2023-06-05 11:00 19.96 µg/m3 6.7 µg/m3 30.02 µg/m3 13.99 µg/m3 N/A 20.96 °C 90.43 % 1,011.72 mbar 1.73 m/s 249.67 Deg 3.95 µg/m3
2023-06-05 10:00 28.11 µg/m3 6.1 µg/m3 33.09 µg/m3 15.52 µg/m3 N/A 21.24 °C 89.8 % 1,011.85 mbar 1.36 m/s 266.43 Deg 10.39 µg/m3
2023-06-05 09:00 37.44 µg/m3 6.42 µg/m3 33.8 µg/m3 16.62 µg/m3 N/A 20.83 °C 91.69 % 1,010.88 mbar 1.57 m/s 252.03 Deg 9.45 µg/m3
2023-06-05 08:00 60.38 µg/m3 6.96 µg/m3 37.4 µg/m3 18.52 µg/m3 N/A 20.67 °C 91.83 % 1,011.08 mbar 1.45 m/s 236.83 Deg 35.42 µg/m3
2023-06-05 07:00 23.53 µg/m3 7.01 µg/m3 34.11 µg/m3 16.75 µg/m3 N/A 20.62 °C 91.63 % 1,011.84 mbar 1.09 m/s 227.09 Deg 3.25 µg/m3
2023-06-05 06:00 37.11 µg/m3 5.9 µg/m3 34.58 µg/m3 16.88 µg/m3 N/A 20.72 °C 90.86 % 1,011.85 mbar 0.83 m/s 274.57 Deg 7.81 µg/m3
2023-06-05 05:00 26.59 µg/m3 6.3 µg/m3 29.39 µg/m3 13.92 µg/m3 N/A 20.74 °C 89.73 % 1,011.42 mbar 1.05 m/s 236.76 Deg 2.67 µg/m3
2023-06-05 04:00 25.4 µg/m3 5.5 µg/m3 27.48 µg/m3 12.91 µg/m3 N/A 20.6 °C 90.67 % 1,011.26 mbar 1.08 m/s 248.49 Deg 3.62 µg/m3
2023-06-05 03:00 28.13 µg/m3 3.83 µg/m3 28.49 µg/m3 13.24 µg/m3 N/A 20.76 °C 90.22 % 1,011.96 mbar 0.83 m/s 254.41 Deg 1.25 µg/m3
2023-06-05 02:00 11.65 µg/m3 3.51 µg/m3 27.39 µg/m3 12.63 µg/m3 N/A 20.83 °C 89.03 % 1,012.52 mbar 0.71 m/s 154.46 Deg 0.43 µg/m3
2023-06-05 01:00 19.91 µg/m3 3.72 µg/m3 26.34 µg/m3 12.06 µg/m3 N/A 20.86 °C 88.9 % 1,012.66 mbar 0.75 m/s 306.5 Deg 1.38 µg/m3
2023-06-05 00:00 29.87 µg/m3 3.94 µg/m3 30.2 µg/m3 14.26 µg/m3 N/A 20.93 °C 87.08 % 1,012.68 mbar 0.86 m/s 281.53 Deg 2.04 µg/m3
2023-06-04 23:00 32.3 µg/m3 3.94 µg/m3 28.62 µg/m3 13.45 µg/m3 N/A 21.07 °C 86.42 % 1,012.46 mbar 1.06 m/s 247.73 Deg 3.1 µg/m3
2023-06-04 22:00 32.48 µg/m3 4.11 µg/m3 28.01 µg/m3 13.11 µg/m3 N/A 21.18 °C 85.85 % 1,012.33 mbar 1.2 m/s 261.51 Deg 3.48 µg/m3
2023-06-04 21:00 25.04 µg/m3 4.11 µg/m3 26.04 µg/m3 11.93 µg/m3 N/A 21.28 °C 85.89 % 1,012.54 mbar 1.06 m/s 240.58 Deg 1.94 µg/m3
2023-06-04 20:00 29.77 µg/m3 4.39 µg/m3 26.45 µg/m3 12.06 µg/m3 N/A 21.56 °C 84.95 % 1,012.66 mbar 1.02 m/s 266.71 Deg 4.08 µg/m3
2023-06-04 19:00 17.91 µg/m3 4.02 µg/m3 24.42 µg/m3 10.94 µg/m3 N/A 21.83 °C 84.02 % 1,012.68 mbar 1.17 m/s 284.81 Deg 2.99 µg/m3
2023-06-04 18:00 21.51 µg/m3 4.07 µg/m3 24.31 µg/m3 9.87 µg/m3 N/A 22.08 °C 81.44 % 1,012.26 mbar 1.32 m/s 231.46 Deg 3.05 µg/m3
2023-06-04 17:00 25.88 µg/m3 3.89 µg/m3 26.81 µg/m3 9.36 µg/m3 N/A 22.6 °C 78.81 % 1,012.97 mbar 1.23 m/s 251.99 Deg 5.11 µg/m3
2023-06-04 16:00 19.66 µg/m3 4.07 µg/m3 24.68 µg/m3 8.69 µg/m3 N/A 23.17 °C 76.09 % 1,013.90 mbar 1.11 m/s 270.93 Deg 4.9 µg/m3
2023-06-04 15:00 20.01 µg/m3 4.18 µg/m3 24.63 µg/m3 8.69 µg/m3 N/A 23.85 °C 73.54 % 1,013.99 mbar 1.21 m/s 258.58 Deg 6.72 µg/m3
2023-06-04 14:00 10.68 µg/m3 3.84 µg/m3 21.72 µg/m3 7.96 µg/m3 N/A 24.08 °C 73.18 % 1,014.21 mbar 1.24 m/s 245.19 Deg 3.88 µg/m3
2023-06-04 13:00 12.29 µg/m3 4.24 µg/m3 24.09 µg/m3 8.24 µg/m3 N/A 23.66 °C 74.45 % 1,013.94 mbar 1.29 m/s 263.07 Deg 4.69 µg/m3
2023-06-04 12:00 13.51 µg/m3 4.18 µg/m3 23.27 µg/m3 8.04 µg/m3 N/A 23.63 °C 73.12 % 1,014.35 mbar 1.12 m/s 248.35 Deg 6.76 µg/m3
2023-06-04 11:00 26.28 µg/m3 3.85 µg/m3 23.8 µg/m3 7.86 µg/m3 N/A 23.91 °C 68.86 % 1,014.54 mbar 1.05 m/s 227.41 Deg 10.84 µg/m3
2023-06-04 10:00 35.35 µg/m3 3.88 µg/m3 25.61 µg/m3 8.56 µg/m3 N/A 23.23 °C 70.39 % 1,014.52 mbar 1.4 m/s 211.94 Deg 16.15 µg/m3
2023-06-04 09:00 29.25 µg/m3 3.82 µg/m3 23.5 µg/m3 8.68 µg/m3 N/A 22.76 °C 75.4 % 1,014.45 mbar 0.95 m/s 246.48 Deg 12.83 µg/m3
2023-06-04 08:00 21.06 µg/m3 3.9 µg/m3 22.84 µg/m3 9.42 µg/m3 N/A 22.15 °C 78.58 % 1,013.95 mbar 0.7 m/s 219.13 Deg 9.74 µg/m3
2023-06-04 07:00 19.66 µg/m3 3.6 µg/m3 24.89 µg/m3 11.76 µg/m3 N/A 21.26 °C 83.37 % 1,013.40 mbar 0.59 m/s 234.31 Deg 5.59 µg/m3
2023-06-04 06:00 15.11 µg/m3 3.3 µg/m3 29.11 µg/m3 14.41 µg/m3 N/A 20.24 °C 87.5 % 1,013.18 mbar 0.54 m/s 312.46 Deg 2.76 µg/m3
2023-06-04 05:00 15.02 µg/m3 3.57 µg/m3 27.86 µg/m3 13.55 µg/m3 N/A 20.07 °C 88.52 % 1,013.18 mbar 0.38 m/s 313.86 Deg 0.68 µg/m3
2023-06-04 04:00 10.61 µg/m3 3.46 µg/m3 28.61 µg/m3 14.1 µg/m3 N/A 20.02 °C 88.02 % 1,013.13 mbar 0.37 m/s 317.4 Deg 0.18 µg/m3
2023-06-04 03:00 16.86 µg/m3 3.7 µg/m3 29.29 µg/m3 14.46 µg/m3 N/A 20.18 °C 87.25 % 1,013.25 mbar 0.34 m/s 233.31 Deg 0.5 µg/m3
2023-06-04 02:00 29.46 µg/m3 3.53 µg/m3 28.22 µg/m3 14.01 µg/m3 N/A 20.51 °C 85.06 % 1,013.45 mbar 0.28 m/s 251.11 Deg 2.34 µg/m3
2023-06-04 01:00 31.47 µg/m3 3.35 µg/m3 29.82 µg/m3 14.59 µg/m3 N/A 20.87 °C 82.61 % 1,013.93 mbar 0.55 m/s 215.67 Deg 3 µg/m3
2023-06-04 00:00 21.19 µg/m3 3.16 µg/m3 30.16 µg/m3 14.33 µg/m3 N/A 20.76 °C 83.98 % 1,014.44 mbar 0.78 m/s 219.4 Deg 1.53 µg/m3
2023-06-03 23:00 10.72 µg/m3 3.13 µg/m3 30.24 µg/m3 14.11 µg/m3 N/A 20.93 °C 83.09 % 1,014.42 mbar 0.27 m/s 306.01 Deg 0.94 µg/m3
2023-06-03 22:00 10.28 µg/m3 2.91 µg/m3 25.94 µg/m3 11.81 µg/m3 N/A 21.21 °C 81.3 % 1,014.23 mbar 0.18 m/s 219.22 Deg 1.04 µg/m3
2023-06-03 21:00 9.97 µg/m3 2.84 µg/m3 23.61 µg/m3 10.91 µg/m3 N/A 21.28 °C 81.32 % 1,014.02 mbar 0.37 m/s 249.93 Deg 0.24 µg/m3
2023-06-03 20:00 11.6 µg/m3 3.51 µg/m3 23.45 µg/m3 10.67 µg/m3 N/A 21.6 °C 80.01 % 1,013.73 mbar 0.47 m/s 224.16 Deg 1.67 µg/m3
2023-06-03 19:00 13.99 µg/m3 3.01 µg/m3 29.31 µg/m3 10.7 µg/m3 N/A 22.1 °C 78.39 % 1,013.33 mbar 0.66 m/s 88.53 Deg 3.68 µg/m3
2023-06-03 18:00 17.27 µg/m3 3.44 µg/m3 27.68 µg/m3 9.35 µg/m3 N/A 23.03 °C 74.19 % 1,013.09 mbar 0.78 m/s 76.43 Deg 5.34 µg/m3
2023-06-03 17:00 11.61 µg/m3 3.72 µg/m3 25.63 µg/m3 8.63 µg/m3 N/A 23.29 °C 72.75 % 1,013.13 mbar 1.11 m/s 267.51 Deg 3.37 µg/m3
2023-06-03 16:00 20.07 µg/m3 3.11 µg/m3 29.05 µg/m3 8.95 µg/m3 N/A 23.64 °C 70.88 % 1,013.44 mbar 0.96 m/s 248.59 Deg 9.13 µg/m3
2023-06-03 15:00 10.23 µg/m3 3.12 µg/m3 26.75 µg/m3 9.07 µg/m3 N/A 22.86 °C 74.32 % 1,013.87 mbar 1.05 m/s 103.21 Deg 3.31 µg/m3
2023-06-03 14:00 11.82 µg/m3 3.48 µg/m3 25.78 µg/m3 8.83 µg/m3 N/A 23.16 °C 73.56 % 1,014.03 mbar 1.19 m/s 188.09 Deg 3.88 µg/m3
2023-06-03 13:00 11.95 µg/m3 3.55 µg/m3 26.19 µg/m3 9.4 µg/m3 N/A 22.87 °C 73.82 % 1,013.95 mbar 1.4 m/s 272.35 Deg 3.29 µg/m3
2023-06-03 12:00 11.69 µg/m3 3.44 µg/m3 30.07 µg/m3 11.04 µg/m3 N/A 22.73 °C 75.56 % 1,014.19 mbar 0.99 m/s 309.78 Deg 3.09 µg/m3
2023-06-03 11:00 15.65 µg/m3 3.44 µg/m3 30.09 µg/m3 11.11 µg/m3 N/A 21.75 °C 80.46 % 1,014.12 mbar 1.38 m/s 300.85 Deg 5.01 µg/m3
2023-06-03 10:00 20.23 µg/m3 2.94 µg/m3 30.7 µg/m3 10.71 µg/m3 N/A 21.71 °C 80.23 % 1,013.78 mbar 1.1 m/s 310.74 Deg 5.69 µg/m3
2023-06-03 09:00 22.89 µg/m3 3.42 µg/m3 39.21 µg/m3 12.4 µg/m3 N/A 21.72 °C 77.33 % 1,013.38 mbar 1.16 m/s 253.73 Deg 7.04 µg/m3
2023-06-03 08:00 29.4 µg/m3 3.96 µg/m3 28.11 µg/m3 12.35 µg/m3 N/A 20.82 °C 80.4 % 1,013.14 mbar 1.76 m/s 205.78 Deg 7.08 µg/m3
2023-06-03 07:00 34.32 µg/m3 3.67 µg/m3 38.05 µg/m3 18.51 µg/m3 N/A 19.74 °C 86.93 % 1,012.82 mbar 0.76 m/s 194.55 Deg 9.76 µg/m3
2023-06-03 06:00 47.52 µg/m3 3.63 µg/m3 45.68 µg/m3 22 µg/m3 N/A 18.65 °C 90.14 % 1,012.61 mbar 1.59 m/s 209.62 Deg 15.83 µg/m3
2023-06-03 05:00 41.54 µg/m3 3.35 µg/m3 32.98 µg/m3 15.67 µg/m3 N/A 18.79 °C 89.3 % 1,012.32 mbar 1.77 m/s 207.71 Deg 8.77 µg/m3
2023-06-03 04:00 40.75 µg/m3 3.49 µg/m3 29.82 µg/m3 14.69 µg/m3 N/A 18.94 °C 88.18 % 1,011.97 mbar 2.12 m/s 211.64 Deg 5.9 µg/m3
2023-06-03 03:00 37.3 µg/m3 3.36 µg/m3 28.19 µg/m3 13.9 µg/m3 N/A 19.34 °C 86.55 % 1,011.94 mbar 1.38 m/s 209.28 Deg 4.79 µg/m3
2023-06-03 02:00 19.71 µg/m3 3.51 µg/m3 26.63 µg/m3 13.28 µg/m3 N/A 19.52 °C 86.25 % 1,011.96 mbar 1.37 m/s 203.03 Deg 0.65 µg/m3
2023-06-03 01:00 36.69 µg/m3 3.37 µg/m3 28.41 µg/m3 13.93 µg/m3 N/A 19.83 °C 85.63 % 1,012.15 mbar 1.91 m/s 201.73 Deg 1.33 µg/m3
2023-06-03 00:00 18.83 µg/m3 3.27 µg/m3 24.87 µg/m3 12.36 µg/m3 N/A 20.34 °C 83.66 % 1,012.40 mbar 1.17 m/s 203.51 Deg 1.49 µg/m3
2023-06-02 23:00 19.07 µg/m3 2.98 µg/m3 18.72 µg/m3 8.77 µg/m3 N/A 20.42 °C 83.6 % 1,012.68 mbar 1.58 m/s 205.85 Deg 0.35 µg/m3
2023-06-02 22:00 15.41 µg/m3 2.94 µg/m3 19.11 µg/m3 8.82 µg/m3 N/A 20.59 °C 82.35 % 1,012.84 mbar 2.42 m/s 203.83 Deg 1.61 µg/m3
2023-06-02 21:00 11.07 µg/m3 4.6 µg/m3 19.55 µg/m3 8.85 µg/m3 N/A 20.85 °C 80.16 % 1,012.36 mbar 2.92 m/s 202.82 Deg 1.73 µg/m3
2023-06-02 20:00 9.41 µg/m3 3.74 µg/m3 19.69 µg/m3 8.5 µg/m3 N/A 21.05 °C 77.96 % 1,011.81 mbar 3.2 m/s 200.74 Deg 1.33 µg/m3
2023-06-02 19:00 12.18 µg/m3 3.29 µg/m3 20.84 µg/m3 8.64 µg/m3 N/A 21.36 °C 76.84 % 1,011.47 mbar 3.29 m/s 205.49 Deg 3.7 µg/m3
2023-06-02 18:00 8.09 µg/m3 3.45 µg/m3 19.34 µg/m3 8.27 µg/m3 N/A 21.79 °C 74.76 % 1,011.34 mbar 4.08 m/s 205.34 Deg 3.36 µg/m3
2023-06-02 17:00 15.1 µg/m3 3.56 µg/m3 19.56 µg/m3 8.17 µg/m3 N/A 22.24 °C 71.54 % 1,011.65 mbar 4.69 m/s 199.89 Deg 3.75 µg/m3
2023-06-02 16:00 6.83 µg/m3 3.13 µg/m3 19.81 µg/m3 8.39 µg/m3 N/A 22.12 °C 68.85 % 1,011.80 mbar 5.74 m/s 202.06 Deg 1.96 µg/m3
2023-06-02 15:00 8.78 µg/m3 3.31 µg/m3 20.45 µg/m3 7.95 µg/m3 N/A 22.57 °C 64.34 % 1,012.05 mbar 5.55 m/s 200.68 Deg 2.91 µg/m3
2023-06-02 14:00 10.36 µg/m3 3.11 µg/m3 29.83 µg/m3 9.28 µg/m3 N/A 22.63 °C 69.48 % 1,012.33 mbar 2.95 m/s 246.96 Deg 2.9 µg/m3
2023-06-02 13:00 12.65 µg/m3 3.29 µg/m3 44.18 µg/m3 11.45 µg/m3 N/A 22.71 °C 72.82 % 1,012.32 mbar 0.8 m/s 296.07 Deg 3.05 µg/m3
2023-06-02 12:00 17.68 µg/m3 3.42 µg/m3 34.09 µg/m3 11.2 µg/m3 N/A 21.87 °C 77.28 % 1,012.34 mbar 0.83 m/s 257.43 Deg 4.28 µg/m3
2023-06-02 11:00 21.59 µg/m3 3.39 µg/m3 31.57 µg/m3 10.62 µg/m3 N/A 21.78 °C 79.33 % 1,012.29 mbar 1.05 m/s 188.23 Deg 5.81 µg/m3
2023-06-02 10:00 15.03 µg/m3 3.2 µg/m3 27.19 µg/m3 11.19 µg/m3 N/A 21.3 °C 82.55 % 1,012.31 mbar 1.12 m/s 191.37 Deg 4.44 µg/m3
2023-06-02 09:00 16.68 µg/m3 2.86 µg/m3 27.16 µg/m3 11.4 µg/m3 N/A 21.11 °C 83 % 1,012.13 mbar 0.94 m/s 283.58 Deg 3.63 µg/m3
2023-06-02 08:00 19.8 µg/m3 3.14 µg/m3 28.15 µg/m3 12.87 µg/m3 N/A 20.81 °C 83.48 % 1,011.91 mbar 0.87 m/s 205.19 Deg 8.33 µg/m3
2023-06-02 07:00 42.31 µg/m3 3.34 µg/m3 40.82 µg/m3 19.35 µg/m3 N/A 20.06 °C 86.51 % 1,011.48 mbar 0.62 m/s 263.08 Deg 25.23 µg/m3
2023-06-02 06:00 57.35 µg/m3 3.85 µg/m3 55.52 µg/m3 27.13 µg/m3 N/A 18.99 °C 89.15 % 1,011.35 mbar 1.1 m/s 208.83 Deg 42.82 µg/m3
2023-06-02 05:00 52.29 µg/m3 3.98 µg/m3 46.84 µg/m3 24.72 µg/m3 N/A 18.72 °C 90.02 % 1,011.05 mbar 1.4 m/s 209.94 Deg 35.93 µg/m3
2023-06-02 04:00 35.02 µg/m3 3.07 µg/m3 39.52 µg/m3 21.88 µg/m3 N/A 18.85 °C 89.06 % 1,011.00 mbar 2.12 m/s 206.78 Deg 4.63 µg/m3
2023-06-02 03:00 52.22 µg/m3 2.81 µg/m3 38.54 µg/m3 20.56 µg/m3 N/A 19.22 °C 87.71 % 1,010.95 mbar 1.37 m/s 212.23 Deg 14.48 µg/m3
2023-06-02 02:00 3.15 µg/m3 3.13 µg/m3 27.38 µg/m3 12.91 µg/m3 N/A 19.9 °C 89.42 % 1,011.17 mbar 0.37 m/s 160.55 Deg 0.29 µg/m3
2023-06-02 01:00 52.26 µg/m3 3.41 µg/m3 25.22 µg/m3 11.82 µg/m3 N/A 20.04 °C 89.34 % 1,011.49 mbar 0.2 m/s 181.82 Deg 11.17 µg/m3
2023-06-02 00:00 25.99 µg/m3 3.3 µg/m3 28.78 µg/m3 13.45 µg/m3 N/A 20.15 °C 88.06 % 1,011.80 mbar 0.31 m/s 345.82 Deg 3.1 µg/m3
2023-06-01 23:00 17.66 µg/m3 2.57 µg/m3 26.1 µg/m3 12.37 µg/m3 N/A 20.44 °C 86.01 % 1,011.91 mbar 0.36 m/s 341.58 Deg 0.12 µg/m3
2023-06-01 22:00 13.44 µg/m3 2.94 µg/m3 25.42 µg/m3 11.75 µg/m3 N/A 20.77 °C 85.16 % 1,011.88 mbar 0.41 m/s 295.16 Deg 0.96 µg/m3
2023-06-01 21:00 14.66 µg/m3 2.77 µg/m3 25.79 µg/m3 11.87 µg/m3 N/A 21.13 °C 83.64 % 1,011.82 mbar 0.54 m/s 288.3 Deg 0.8 µg/m3
2023-06-01 20:00 19.33 µg/m3 3.3 µg/m3 26.94 µg/m3 10.65 µg/m3 N/A 21.64 °C 79.56 % 1,011.21 mbar 0.53 m/s 254.22 Deg 1.27 µg/m3
2023-06-01 19:00 20.54 µg/m3 2.82 µg/m3 30.61 µg/m3 9.58 µg/m3 N/A 22.86 °C 72.03 % 1,010.83 mbar 0.66 m/s 230.31 Deg 3.53 µg/m3
2023-06-01 18:00 18.37 µg/m3 3.15 µg/m3 29.35 µg/m3 9.57 µg/m3 N/A 23.42 °C 72.27 % 1,010.95 mbar 0.79 m/s 265.48 Deg 4.1 µg/m3
2023-06-01 17:00 7.78 µg/m3 3.44 µg/m3 30.34 µg/m3 10.2 µg/m3 N/A 23.65 °C 72.33 % 1,010.99 mbar 0.77 m/s 231.84 Deg 1.6 µg/m3
2023-06-01 16:00 18.34 µg/m3 4.05 µg/m3 31.1 µg/m3 10.54 µg/m3 N/A 23.93 °C 69.68 % 1,011.10 mbar 0.95 m/s 248.44 Deg 4.51 µg/m3
2023-06-01 15:00 12.58 µg/m3 5.07 µg/m3 30.21 µg/m3 10.8 µg/m3 N/A 24.48 °C 61.07 % 1,011.26 mbar 0.96 m/s 257.21 Deg 3.22 µg/m3
2023-06-01 14:00 11.87 µg/m3 5.08 µg/m3 31.75 µg/m3 10.86 µg/m3 N/A 24.07 °C 66.86 % 1,011.71 mbar 1 m/s 265.93 Deg 3.05 µg/m3
2023-06-01 13:00 11.83 µg/m3 3.51 µg/m3 32.03 µg/m3 11.59 µg/m3 N/A 23.27 °C 72.91 % 1,011.94 mbar 0.96 m/s 285.18 Deg 2.64 µg/m3
2023-06-01 12:00 14.58 µg/m3 2.97 µg/m3 42.33 µg/m3 13.22 µg/m3 N/A 22.29 °C 78.48 % 1,012.19 mbar 1.01 m/s 231.28 Deg 3.68 µg/m3
2023-06-01 11:00 12.4 µg/m3 3.12 µg/m3 41.25 µg/m3 13.31 µg/m3 N/A 22.53 °C 77.28 % 1,012.38 mbar 0.81 m/s 276.08 Deg 2.99 µg/m3
2023-06-01 10:00 22.76 µg/m3 3.45 µg/m3 40.7 µg/m3 13.89 µg/m3 N/A 21.91 °C 80.85 % 1,012.35 mbar 0.94 m/s 214.57 Deg 5.4 µg/m3
2023-06-01 09:00 18.17 µg/m3 2.91 µg/m3 32.68 µg/m3 14.6 µg/m3 N/A 21.35 °C 84.33 % 1,012.04 mbar 1.06 m/s 254.83 Deg 6.18 µg/m3
2023-06-01 08:00 16.5 µg/m3 3.3 µg/m3 28.85 µg/m3 13.18 µg/m3 N/A 20.95 °C 84.88 % 1,011.86 mbar 1.01 m/s 212.88 Deg 4.93 µg/m3
2023-06-01 07:00 14.02 µg/m3 3.07 µg/m3 29.25 µg/m3 13.49 µg/m3 N/A 20.47 °C 86.88 % 1,011.42 mbar 0.84 m/s 226.38 Deg 2.86 µg/m3
2023-06-01 06:00 5.41 µg/m3 5.59 µg/m3 25.36 µg/m3 11.75 µg/m3 N/A 20.02 °C 89.03 % 1,011.05 mbar 0.85 m/s 212.28 Deg 1.26 µg/m3
2023-06-01 05:00 5.34 µg/m3 4.4 µg/m3 23.75 µg/m3 11.07 µg/m3 N/A 19.92 °C 89.71 % 1,010.80 mbar 0.85 m/s 246.08 Deg 0.48 µg/m3
2023-06-01 04:00 2.61 µg/m3 5.8 µg/m3 23.75 µg/m3 11.16 µg/m3 N/A 19.95 °C 90.42 % 1,010.60 mbar 0.86 m/s 183.08 Deg 0.06 µg/m3
2023-06-01 03:00 8.01 µg/m3 3.66 µg/m3 24.49 µg/m3 11.6 µg/m3 N/A 20.06 °C 89.87 % 1,010.64 mbar 0.95 m/s 255.88 Deg 0.2 µg/m3
2023-06-01 02:00 4.7 µg/m3 3.29 µg/m3 26.96 µg/m3 12.85 µg/m3 N/A 20.14 °C 89.36 % 1,010.94 mbar 0.72 m/s 184.62 Deg 0.64 µg/m3
2023-06-01 01:00 N/A N/A N/A N/A N/A N/A N/A N/A N/A N/A N/A
2023-06-01 00:00 N/A N/A N/A N/A N/A N/A N/A N/A N/A N/A N/A
2023-05-31 23:00 N/A N/A N/A N/A N/A N/A N/A N/A N/A N/A N/A
2023-05-31 22:00 N/A N/A N/A N/A N/A N/A N/A N/A N/A N/A N/A
2023-05-31 21:00 N/A N/A N/A N/A N/A N/A N/A N/A N/A N/A N/A
2023-05-31 20:00 N/A N/A N/A N/A N/A N/A N/A N/A N/A N/A N/A
2023-05-31 19:00 N/A N/A N/A N/A N/A N/A N/A N/A N/A N/A N/A
2023-05-31 18:00 N/A N/A N/A N/A N/A N/A N/A N/A N/A N/A N/A
2023-05-31 17:00 N/A N/A N/A N/A N/A N/A N/A N/A N/A N/A N/A
2023-05-31 16:00 N/A N/A N/A N/A N/A N/A N/A N/A N/A N/A N/A
2023-05-31 15:00 N/A N/A N/A N/A N/A N/A N/A N/A N/A N/A N/A
2023-05-31 14:00 N/A N/A N/A N/A N/A N/A N/A N/A N/A N/A N/A
2023-05-31 13:00 N/A N/A N/A N/A N/A N/A N/A N/A N/A N/A N/A
2023-05-31 12:00 N/A N/A N/A N/A N/A N/A N/A N/A N/A N/A N/A
2023-05-31 11:00 N/A N/A N/A N/A N/A N/A N/A N/A N/A N/A N/A
2023-05-31 10:00 N/A N/A N/A N/A N/A N/A N/A N/A N/A N/A N/A
2023-05-31 09:00 N/A N/A N/A N/A N/A N/A N/A N/A N/A N/A N/A
2023-05-31 08:00 N/A N/A N/A N/A N/A N/A N/A N/A N/A N/A N/A
2023-05-31 07:00 N/A N/A N/A N/A N/A N/A N/A N/A N/A N/A N/A
2023-05-31 06:00 N/A N/A N/A N/A N/A N/A N/A N/A N/A N/A N/A
2023-05-31 05:00 N/A N/A N/A N/A N/A N/A N/A N/A N/A N/A N/A
2023-05-31 04:00 N/A N/A N/A N/A N/A N/A N/A N/A N/A N/A N/A
2023-05-31 03:00 N/A N/A N/A N/A N/A N/A N/A N/A N/A N/A N/A
2023-05-31 02:00 N/A N/A N/A N/A N/A N/A N/A N/A N/A N/A N/A
2023-05-31 01:00 N/A N/A N/A N/A N/A N/A N/A N/A N/A N/A N/A
2023-05-31 00:00 N/A N/A N/A N/A N/A N/A N/A N/A N/A N/A N/A
2023-05-30 23:00 N/A N/A N/A N/A N/A N/A N/A N/A N/A N/A N/A
2023-05-30 22:00 N/A N/A N/A N/A N/A N/A N/A N/A N/A N/A N/A
2023-05-30 21:00 N/A N/A N/A N/A N/A N/A N/A N/A N/A N/A N/A
2023-05-30 20:00 N/A N/A N/A N/A N/A N/A N/A N/A N/A N/A N/A
2023-05-30 19:00 N/A N/A N/A N/A N/A N/A N/A N/A N/A N/A N/A
2023-05-30 18:00 N/A N/A N/A N/A N/A N/A N/A N/A N/A N/A N/A
2023-05-30 17:00 N/A N/A N/A N/A N/A N/A N/A N/A N/A N/A N/A
2023-05-30 16:00 N/A N/A N/A N/A N/A N/A N/A N/A N/A N/A N/A
2023-05-30 15:00 N/A N/A N/A N/A N/A N/A N/A N/A N/A N/A N/A
2023-05-30 14:00 N/A N/A N/A N/A N/A N/A N/A N/A N/A N/A N/A
2023-05-30 13:00 N/A N/A N/A N/A N/A N/A N/A N/A N/A N/A N/A
2023-05-30 12:00 N/A N/A N/A N/A N/A N/A N/A N/A N/A N/A N/A
2023-05-30 11:00 N/A N/A N/A N/A N/A N/A N/A N/A N/A N/A N/A
2023-05-30 10:00 N/A N/A N/A N/A N/A N/A N/A N/A N/A N/A N/A
2023-05-30 09:00 N/A N/A N/A N/A N/A N/A N/A N/A N/A N/A N/A
2023-05-30 08:00 N/A N/A N/A N/A N/A N/A N/A N/A N/A N/A N/A
2023-05-30 07:00 N/A N/A N/A N/A N/A N/A N/A N/A N/A N/A N/A
2023-05-30 06:00 N/A N/A N/A N/A N/A N/A N/A N/A N/A N/A N/A
2023-05-30 05:00 N/A N/A N/A N/A N/A N/A N/A N/A N/A N/A N/A
2023-05-30 04:00 N/A N/A N/A N/A N/A N/A N/A N/A N/A N/A N/A
2023-05-30 03:00 N/A N/A N/A N/A N/A N/A N/A N/A N/A N/A N/A
2023-05-30 02:00 N/A N/A N/A N/A N/A N/A N/A N/A N/A N/A N/A
2023-05-30 01:00 N/A N/A N/A N/A N/A N/A N/A N/A N/A N/A N/A
2023-05-30 00:00 N/A N/A N/A N/A N/A N/A N/A N/A N/A N/A N/A
2023-05-29 23:00 N/A N/A N/A N/A N/A N/A N/A N/A N/A N/A N/A
2023-05-29 22:00 N/A N/A N/A N/A N/A N/A N/A N/A N/A N/A N/A
2023-05-29 21:00 N/A N/A N/A N/A N/A N/A N/A N/A N/A N/A N/A
2023-05-29 20:00 N/A N/A N/A N/A N/A N/A N/A N/A N/A N/A N/A
2023-05-29 19:00 N/A N/A N/A N/A N/A N/A N/A N/A N/A N/A N/A
2023-05-29 18:00 N/A N/A N/A N/A N/A N/A N/A N/A N/A N/A N/A
2023-05-29 17:00 N/A N/A N/A N/A N/A N/A N/A N/A N/A N/A N/A
2023-05-29 16:00 N/A N/A N/A N/A N/A N/A N/A N/A N/A N/A N/A
2023-05-29 15:00 N/A N/A N/A N/A N/A N/A N/A N/A N/A N/A N/A
2023-05-29 14:00 N/A N/A N/A N/A N/A N/A N/A N/A N/A N/A N/A
2023-05-29 13:00 N/A N/A N/A N/A N/A N/A N/A N/A N/A N/A N/A
2023-05-29 12:00 N/A N/A N/A N/A N/A N/A N/A N/A N/A N/A N/A
2023-05-29 11:00 N/A N/A N/A N/A N/A N/A N/A N/A N/A N/A N/A
2023-05-29 10:00 N/A N/A N/A N/A N/A N/A N/A N/A N/A N/A N/A
2023-05-29 09:00 N/A N/A N/A N/A N/A N/A N/A N/A N/A N/A N/A
2023-05-18 11:00 0 µg/m3 0 µg/m3 34.96 µg/m3 9.75 µg/m3 0 mg/m3 21.7 °C 59.13 % 1,014.93 mbar 1.25 m/s 148.53 Deg 0 µg/m3
2023-05-18 10:00 0 µg/m3 0 µg/m3 41.2 µg/m3 10.51 µg/m3 0 mg/m3 20.92 °C 57.49 % 1,014.76 mbar 1.01 m/s 148.91 Deg 0 µg/m3
2023-05-18 09:00 0 µg/m3 0 µg/m3 57.43 µg/m3 14.99 µg/m3 0 mg/m3 20.46 °C 62.32 % 1,014.56 mbar 0.54 m/s 162.54 Deg 0 µg/m3
2023-05-18 08:00 0 µg/m3 0 µg/m3 73.16 µg/m3 14.97 µg/m3 0 mg/m3 19.21 °C 67.39 % 1,014.28 mbar 0.37 m/s 140.93 Deg 0 µg/m3
2023-05-12 17:00 9.15 µg/m3 2.84 µg/m3 29.31 µg/m3 7.34 µg/m3 0.15 mg/m3 21.76 °C 55.19 % 1,003.53 mbar 1.02 m/s 164.79 Deg 1.03 µg/m3
2023-05-12 16:00 7.26 µg/m3 2.42 µg/m3 24.22 µg/m3 6.3 µg/m3 0.14 mg/m3 22.41 °C 55.36 % 1,003.64 mbar 1.06 m/s 168.11 Deg 0.95 µg/m3
2023-05-12 15:00 5.14 µg/m3 2.33 µg/m3 19.34 µg/m3 5.92 µg/m3 0.14 mg/m3 22.03 °C 55.24 % 1,004.20 mbar 1.37 m/s 164.68 Deg 0.55 µg/m3
2023-05-12 14:00 5.87 µg/m3 2.47 µg/m3 21.84 µg/m3 5.61 µg/m3 0.15 mg/m3 22.44 °C 56.99 % 1,004.45 mbar 1.3 m/s 171.08 Deg 0.99 µg/m3
2023-05-12 13:00 7.52 µg/m3 2.31 µg/m3 19.47 µg/m3 4.41 µg/m3 0.14 mg/m3 21.05 °C 61.51 % 1,005.35 mbar 1.25 m/s 172.98 Deg 1.04 µg/m3
2023-05-12 12:00 31.21 µg/m3 2.25 µg/m3 28.05 µg/m3 8.05 µg/m3 0.18 mg/m3 20.52 °C 73.13 % 1,005.32 mbar 1 m/s 98.66 Deg 25.07 µg/m3
2023-05-12 11:00 5.04 µg/m3 2.34 µg/m3 10.55 µg/m3 3.65 µg/m3 0.14 mg/m3 19.11 °C 77.79 % 1,005.35 mbar 1.14 m/s 206.18 Deg 2.28 µg/m3
2023-05-12 10:00 19.1 µg/m3 2.3 µg/m3 16.96 µg/m3 7.13 µg/m3 0.21 mg/m3 16.76 °C 90.63 % 1,004.94 mbar 0.78 m/s 185.28 Deg 9.22 µg/m3
2023-05-12 09:00 30.3 µg/m3 1.94 µg/m3 14.37 µg/m3 5.73 µg/m3 0.18 mg/m3 15.54 °C 87.87 % 1,005.01 mbar 0.65 m/s 239.68 Deg 5.72 µg/m3
2023-05-12 08:00 13.79 µg/m3 1.97 µg/m3 18.04 µg/m3 5.78 µg/m3 0.09 mg/m3 15.93 °C 82.14 % 1,004.70 mbar 0.84 m/s 241.63 Deg 1.67 µg/m3
2023-05-12 07:00 18.2 µg/m3 2.02 µg/m3 15.58 µg/m3 6.33 µg/m3 0.11 mg/m3 14.19 °C 89.36 % 1,004.31 mbar 1.29 m/s 221.9 Deg 1.81 µg/m3
2023-05-12 06:00 8.09 µg/m3 2.37 µg/m3 11.94 µg/m3 4.33 µg/m3 0.09 mg/m3 15.51 °C 79.3 % 1,005.50 mbar 1.87 m/s 206 Deg 0.15 µg/m3
2023-05-12 05:00 6.15 µg/m3 2.17 µg/m3 17.81 µg/m3 7.66 µg/m3 0.09 mg/m3 15.6 °C 89.95 % 1,004.30 mbar 0.53 m/s 207.99 Deg 0.4 µg/m3
2023-05-12 04:00 1.87 µg/m3 2.15 µg/m3 18.41 µg/m3 8 µg/m3 0.08 mg/m3 16.05 °C 93.58 % 1,003.82 mbar 0.5 m/s 209.24 Deg 0.09 µg/m3
2023-05-12 03:00 0.87 µg/m3 2.22 µg/m3 17.69 µg/m3 7.85 µg/m3 0.08 mg/m3 16.3 °C 92.82 % 1,004.14 mbar 0.95 m/s 187.33 Deg 0.05 µg/m3
2023-05-12 02:00 -0 µg/m3 2.44 µg/m3 16.9 µg/m3 7.73 µg/m3 0.09 mg/m3 16.53 °C 91.87 % 1,004.35 mbar 2.07 m/s 254.62 Deg 0.02 µg/m3
2023-05-12 01:00 1.13 µg/m3 2 µg/m3 17.32 µg/m3 7.79 µg/m3 0.09 mg/m3 16.22 °C 91.92 % 1,004.58 mbar 1.58 m/s 249.96 Deg 0.12 µg/m3
2023-05-12 00:00 0.13 µg/m3 2.26 µg/m3 17.33 µg/m3 7.87 µg/m3 0.09 mg/m3 16.1 °C 90.33 % 1,004.51 mbar 2.1 m/s 236.09 Deg 0.27 µg/m3
2023-05-11 23:00 0.64 µg/m3 1.99 µg/m3 16.72 µg/m3 7.55 µg/m3 0.09 mg/m3 16.23 °C 88.43 % 1,004.43 mbar 2.8 m/s 241.39 Deg 0.15 µg/m3
2023-05-11 22:00 2.58 µg/m3 1.55 µg/m3 17.69 µg/m3 7.62 µg/m3 0.1 mg/m3 15.64 °C 87.11 % 1,004.33 mbar 1.35 m/s 235.22 Deg -0.22 µg/m3
2023-05-11 21:00 2.03 µg/m3 1.74 µg/m3 17.46 µg/m3 7.47 µg/m3 0.11 mg/m3 15.88 °C 83.29 % 1,004.19 mbar 1.57 m/s 231.13 Deg -0.14 µg/m3
2023-05-11 20:00 3.77 µg/m3 1.62 µg/m3 18.23 µg/m3 7.88 µg/m3 0.11 mg/m3 16.25 °C 81.27 % 1,003.78 mbar 1.75 m/s 228.29 Deg 0.28 µg/m3
2023-05-11 19:00 2.87 µg/m3 1.63 µg/m3 20.19 µg/m3 7.8 µg/m3 0.12 mg/m3 17.3 °C 75.19 % 1,003.37 mbar 2.33 m/s 231.66 Deg 0.2 µg/m3
2023-05-11 18:00 2.17 µg/m3 1.61 µg/m3 19.63 µg/m3 7.56 µg/m3 0.11 mg/m3 18.3 °C 67.92 % 1,003.19 mbar 3.12 m/s 233.78 Deg 0.23 µg/m3
2023-05-11 17:00 2.08 µg/m3 2.07 µg/m3 21.23 µg/m3 7.83 µg/m3 0.1 mg/m3 19.1 °C 66.64 % 1,003.18 mbar 3.31 m/s 231.07 Deg 0.43 µg/m3
2023-05-11 16:00 2.9 µg/m3 1.48 µg/m3 21.04 µg/m3 9.07 µg/m3 0.11 mg/m3 19.18 °C 69.35 % 1,003.28 mbar 3.56 m/s 234.73 Deg 0.46 µg/m3
2023-05-11 15:00 3.09 µg/m3 1.19 µg/m3 22.47 µg/m3 9.2 µg/m3 0.11 mg/m3 19.82 °C 66.67 % 1,003.55 mbar 3.31 m/s 236.76 Deg 0.49 µg/m3
2023-05-11 14:00 2.24 µg/m3 1.35 µg/m3 21.89 µg/m3 8.43 µg/m3 0.11 mg/m3 20.03 °C 63.71 % 1,003.71 mbar 3.52 m/s 233.97 Deg 0.08 µg/m3
2023-05-11 13:00 1.98 µg/m3 1.38 µg/m3 21.76 µg/m3 8.3 µg/m3 0.11 mg/m3 20 °C 64.66 % 1,003.78 mbar 3.35 m/s 240.17 Deg 0.31 µg/m3
2023-05-11 12:00 2.57 µg/m3 1.19 µg/m3 26.4 µg/m3 9.6 µg/m3 0.11 mg/m3 20.01 °C 68.91 % 1,003.83 mbar 3.07 m/s 240.98 Deg 0.76 µg/m3
2023-05-11 11:00 4.67 µg/m3 0.79 µg/m3 25.91 µg/m3 9.71 µg/m3 0.12 mg/m3 19.86 °C 70.41 % 1,003.77 mbar 3.24 m/s 238.43 Deg 1.16 µg/m3
2023-05-11 10:00 8.72 µg/m3 0.81 µg/m3 26.57 µg/m3 9.45 µg/m3 0.12 mg/m3 19.49 °C 70.27 % 1,003.78 mbar 2.83 m/s 253.37 Deg 3.04 µg/m3
2023-05-11 09:00 8.67 µg/m3 0.72 µg/m3 21.71 µg/m3 8.59 µg/m3 0.12 mg/m3 18.76 °C 72.94 % 1,003.64 mbar 3.69 m/s 241.95 Deg 2.49 µg/m3
2023-05-11 08:00 15.36 µg/m3 0.89 µg/m3 20.84 µg/m3 9.28 µg/m3 0.05 mg/m3 17.91 °C 81.53 % 1,003.48 mbar 3.47 m/s 243.83 Deg 6.55 µg/m3
2023-05-11 07:00 12.41 µg/m3 0.82 µg/m3 19.36 µg/m3 9.19 µg/m3 0.06 mg/m3 16.89 °C 89.79 % 1,003.22 mbar 3.68 m/s 246.41 Deg 5.34 µg/m3
2023-05-11 06:00 6.22 µg/m3 0.58 µg/m3 17.24 µg/m3 8.2 µg/m3 0.06 mg/m3 16 °C 93.7 % 1,002.79 mbar 3.52 m/s 243.97 Deg 1.16 µg/m3
2023-05-11 05:00 3.6 µg/m3 0.74 µg/m3 16.9 µg/m3 7.56 µg/m3 0.06 mg/m3 15.81 °C 94.65 % 1,002.53 mbar 1.9 m/s 242.5 Deg 0.34 µg/m3
2023-05-11 04:00 4.91 µg/m3 0.8 µg/m3 19.14 µg/m3 8.97 µg/m3 0.06 mg/m3 15.62 °C 96.44 % 1,002.55 mbar 1.58 m/s 231.09 Deg 0.14 µg/m3
2023-05-11 03:00 11.31 µg/m3 0.67 µg/m3 27.87 µg/m3 13.53 µg/m3 0.07 mg/m3 14.85 °C 97.35 % 1,002.46 mbar 0.53 m/s 185.26 Deg 0.23 µg/m3
2023-05-11 02:00 12.42 µg/m3 0.82 µg/m3 28.18 µg/m3 14.43 µg/m3 0.07 mg/m3 15.13 °C 96.69 % 1,002.39 mbar 0.81 m/s 230.69 Deg 0.21 µg/m3
2023-05-11 01:00 3.34 µg/m3 0.78 µg/m3 25.09 µg/m3 13.55 µg/m3 0.08 mg/m3 15.6 °C 96.56 % 1,002.85 mbar 1.27 m/s 227.5 Deg 0.08 µg/m3
2023-05-11 00:00 6.38 µg/m3 0.66 µg/m3 25.92 µg/m3 14.09 µg/m3 0.08 mg/m3 15.62 °C 96.69 % 1,003.06 mbar 0.85 m/s 226.83 Deg 0.03 µg/m3
2023-05-10 23:00 3.3 µg/m3 1.01 µg/m3 23.35 µg/m3 12.5 µg/m3 0.1 mg/m3 15.69 °C 96.15 % 1,003.05 mbar 0.88 m/s 224.87 Deg 0.1 µg/m3
2023-05-10 22:00 5.96 µg/m3 0.92 µg/m3 26.59 µg/m3 14.11 µg/m3 0.11 mg/m3 15.86 °C 95.03 % 1,002.92 mbar 0.58 m/s 226.32 Deg 0.59 µg/m3
2023-05-10 21:00 6.54 µg/m3 1.09 µg/m3 23.98 µg/m3 12.53 µg/m3 0.12 mg/m3 16.19 °C 92.9 % 1,002.74 mbar 0.75 m/s 224.99 Deg -0.01 µg/m3
2023-05-10 20:00 8.6 µg/m3 1.29 µg/m3 23.15 µg/m3 10.86 µg/m3 0.12 mg/m3 17.24 °C 84.79 % 1,002.62 mbar 0.9 m/s 234.32 Deg -0.09 µg/m3
2023-05-10 19:00 15.28 µg/m3 1.04 µg/m3 291.22 µg/m3 20.89 µg/m3 0.27 mg/m3 18.09 °C 68.42 % 1,002.01 mbar 0.55 m/s 292.18 Deg 1.1 µg/m3
2023-05-10 18:00 16.49 µg/m3 0.94 µg/m3 349.06 µg/m3 22.69 µg/m3 0.26 mg/m3 18.3 °C 69.75 % 1,001.89 mbar 0.71 m/s 225.81 Deg 2.52 µg/m3
2023-05-10 17:00 40.87 µg/m3 1.22 µg/m3 258.17 µg/m3 19.7 µg/m3 0.27 mg/m3 18.64 °C 72.57 % 1,001.84 mbar 0.84 m/s 251.48 Deg 21.93 µg/m3
2023-05-10 16:00 37.31 µg/m3 1.18 µg/m3 28.09 µg/m3 11.53 µg/m3 0.16 mg/m3 18.05 °C 78.62 % 1,001.85 mbar 1.3 m/s 178.65 Deg 29.61 µg/m3
2023-05-10 15:00 38.03 µg/m3 1.29 µg/m3 23 µg/m3 11.42 µg/m3 0.13 mg/m3 17.9 °C 81.35 % 1,002.05 mbar 1 m/s 248.57 Deg 18.9 µg/m3
2023-05-10 14:00 22.21 µg/m3 1.47 µg/m3 26.32 µg/m3 10.7 µg/m3 0.14 mg/m3 19.18 °C 75.81 % 1,002.45 mbar 1.21 m/s 295.41 Deg 14.48 µg/m3
2023-05-10 13:00 20.01 µg/m3 1.47 µg/m3 28.39 µg/m3 9.67 µg/m3 0.15 mg/m3 20.21 °C 67.95 % 1,002.41 mbar 1.56 m/s 48.91 Deg 7.94 µg/m3
2023-05-10 12:00 11.18 µg/m3 1.53 µg/m3 31.8 µg/m3 10.56 µg/m3 0.16 mg/m3 20.09 °C 68.52 % 1,002.50 mbar 1.6 m/s 41.78 Deg 4 µg/m3
2023-05-10 11:00 15.3 µg/m3 1.76 µg/m3 31.63 µg/m3 11 µg/m3 0.16 mg/m3 19.71 °C 69.93 % 1,002.23 mbar 1.96 m/s 47.44 Deg 6.15 µg/m3
2023-05-10 10:00 12.13 µg/m3 1.44 µg/m3 25.73 µg/m3 9.81 µg/m3 0.15 mg/m3 19.26 °C 69.89 % 1,002.29 mbar 2.18 m/s 46.6 Deg 3.79 µg/m3
2023-05-10 09:00 13.37 µg/m3 1.59 µg/m3 23.52 µg/m3 9.42 µg/m3 0.14 mg/m3 18.58 °C 71.89 % 1,002.06 mbar 2.29 m/s 49.09 Deg 5.57 µg/m3
2023-05-10 08:00 12.45 µg/m3 1.55 µg/m3 28.3 µg/m3 10.33 µg/m3 0.02 mg/m3 17.86 °C 73.68 % 1,001.51 mbar 2.03 m/s 49.19 Deg 1.37 µg/m3
2023-05-10 07:00 19.28 µg/m3 1.72 µg/m3 34.32 µg/m3 11.2 µg/m3 0.06 mg/m3 16.82 °C 74.09 % 1,001.15 mbar 1.51 m/s 43.49 Deg 1.65 µg/m3
2023-05-10 06:00 17.86 µg/m3 1.9 µg/m3 27.42 µg/m3 11.41 µg/m3 0.06 mg/m3 15.67 °C 78.22 % 1,000.87 mbar 0.71 m/s 190.19 Deg 0.51 µg/m3
2023-05-10 05:00 11.59 µg/m3 1.79 µg/m3 22.49 µg/m3 10.3 µg/m3 0.05 mg/m3 15.42 °C 78.55 % 1,000.75 mbar 0.68 m/s 260.5 Deg 1.03 µg/m3
2023-05-10 04:00 3.79 µg/m3 1.82 µg/m3 22.03 µg/m3 9.81 µg/m3 0.04 mg/m3 15.81 °C 77.68 % 1,000.80 mbar 1.03 m/s 185.64 Deg -0.37 µg/m3
2023-05-10 03:00 1.83 µg/m3 0.9 µg/m3 21.42 µg/m3 10.02 µg/m3 0.04 mg/m3 15.65 °C 80.21 % 1,000.86 mbar 1.15 m/s 102.88 Deg -0.2 µg/m3
2023-05-10 02:00 6.48 µg/m3 1.18 µg/m3 23.41 µg/m3 10.86 µg/m3 0.05 mg/m3 15.58 °C 84.04 % 1,001.28 mbar 0.86 m/s 322.13 Deg 0.08 µg/m3
2023-05-10 01:00 3.97 µg/m3 1.22 µg/m3 24.17 µg/m3 11.46 µg/m3 0.06 mg/m3 15.94 °C 84.36 % 1,001.61 mbar 1.09 m/s 100.45 Deg -0.15 µg/m3
2023-05-10 00:00 1.06 µg/m3 1.44 µg/m3 22.19 µg/m3 10.7 µg/m3 0.06 mg/m3 16.16 °C 83.19 % 1,001.58 mbar 2.06 m/s 108.94 Deg -0.28 µg/m3
2023-05-09 23:00 1.54 µg/m3 1.38 µg/m3 21.49 µg/m3 10.37 µg/m3 0.06 mg/m3 16.28 °C 82.36 % 1,001.57 mbar 2.19 m/s 44.03 Deg -0.34 µg/m3
2023-05-09 22:00 1.24 µg/m3 1.39 µg/m3 19.67 µg/m3 9.8 µg/m3 0.07 mg/m3 16.34 °C 82.04 % 1,001.51 mbar 3.06 m/s 46.83 Deg -0.45 µg/m3
2023-05-09 21:00 1.54 µg/m3 0.98 µg/m3 19.33 µg/m3 9.63 µg/m3 0.07 mg/m3 16.45 °C 79.64 % 1,001.54 mbar 3.37 m/s 47.03 Deg -0.15 µg/m3
2023-05-09 20:00 0.4 µg/m3 0.83 µg/m3 19.21 µg/m3 9.77 µg/m3 0.08 mg/m3 16.45 °C 82.42 % 1,001.18 mbar 3.87 m/s 45.14 Deg -0.31 µg/m3
2023-05-09 19:00 1.01 µg/m3 0.9 µg/m3 18.59 µg/m3 9.41 µg/m3 0.09 mg/m3 16.72 °C 80.78 % 1,000.86 mbar 4.26 m/s 48.57 Deg -0.47 µg/m3
2023-05-09 18:00 3.46 µg/m3 0.87 µg/m3 19.65 µg/m3 9.76 µg/m3 0.1 mg/m3 16.82 °C 84.26 % 1,000.46 mbar 3.94 m/s 46.98 Deg 0.16 µg/m3
2023-05-09 17:00 2.88 µg/m3 1.15 µg/m3 20.34 µg/m3 9.91 µg/m3 0.11 mg/m3 17.1 °C 85.26 % 1,000.25 mbar 4 m/s 49.1 Deg 0.13 µg/m3
2023-05-09 16:00 4.54 µg/m3 0.68 µg/m3 21.18 µg/m3 10.15 µg/m3 0.11 mg/m3 17.59 °C 83.99 % 1,000.02 mbar 4.1 m/s 45.44 Deg 0.14 µg/m3
2023-05-09 15:00 6.67 µg/m3 0.9 µg/m3 21.42 µg/m3 10.19 µg/m3 0.11 mg/m3 17.98 °C 80.66 % 1,000.00 mbar 4.32 m/s 48.12 Deg 1.67 µg/m3
2023-05-09 14:00 5.28 µg/m3 1.32 µg/m3 22.15 µg/m3 10.16 µg/m3 0.11 mg/m3 18.21 °C 79.39 % 1,000.05 mbar 5.25 m/s 47.83 Deg 0.75 µg/m3
2023-05-09 13:00 4.26 µg/m3 1.37 µg/m3 21.06 µg/m3 10.58 µg/m3 0.12 mg/m3 18.39 °C 83.52 % 1,000.01 mbar 4.93 m/s 35.23 Deg 0.8 µg/m3
2023-05-09 12:00 10 µg/m3 1.31 µg/m3 22.13 µg/m3 11.29 µg/m3 0.14 mg/m3 18.04 °C 88.72 % 999.86 mbar 4.59 m/s 47.6 Deg 6.72 µg/m3
2023-05-09 11:00 18.92 µg/m3 1.24 µg/m3 22.29 µg/m3 11.42 µg/m3 0.15 mg/m3 17.38 °C 90.47 % 999.78 mbar 4.63 m/s 50.23 Deg 18.64 µg/m3
2023-05-09 10:00 10.09 µg/m3 1.02 µg/m3 21.3 µg/m3 11.01 µg/m3 0.16 mg/m3 16.86 °C 92.96 % 999.80 mbar 4.04 m/s 45.91 Deg 1.55 µg/m3
2023-05-09 09:00 6.57 µg/m3 1.02 µg/m3 20.97 µg/m3 10.82 µg/m3 0.16 mg/m3 16.68 °C 93.81 % 999.94 mbar 3.96 m/s 43.28 Deg 0.94 µg/m3
2023-05-09 08:00 7.69 µg/m3 0.16 µg/m3 19.86 µg/m3 10.07 µg/m3 0.21 mg/m3 16.54 °C 91.93 % 999.92 mbar 3.67 m/s 42.49 Deg 0.34 µg/m3
2023-05-09 07:00 10.83 µg/m3 -0.58 µg/m3 20.1 µg/m3 10.24 µg/m3 0.23 mg/m3 16.13 °C 90.82 % 1,000.01 mbar 3.12 m/s 44.07 Deg -0.17 µg/m3
2023-05-09 06:00 6.29 µg/m3 2.28 µg/m3 21.8 µg/m3 11.21 µg/m3 0.23 mg/m3 16.09 °C 92.24 % 1,000.50 mbar 2.23 m/s 44.58 Deg -0.13 µg/m3
2023-05-09 05:00 2.12 µg/m3 2.31 µg/m3 21.05 µg/m3 10.82 µg/m3 0.23 mg/m3 16.21 °C 88.89 % 999.98 mbar 2.67 m/s 47.52 Deg -0.19 µg/m3
2023-05-09 04:00 1.3 µg/m3 1.88 µg/m3 19.65 µg/m3 10.61 µg/m3 0.23 mg/m3 16.39 °C 87.52 % 999.22 mbar 3.66 m/s 42.22 Deg -0.13 µg/m3
2023-05-09 03:00 1.1 µg/m3 2.82 µg/m3 18.7 µg/m3 10.32 µg/m3 0.25 mg/m3 16.37 °C 91.44 % 999.10 mbar 4.1 m/s 46.13 Deg -0.11 µg/m3
2023-05-09 02:00 2.67 µg/m3 1.83 µg/m3 19.27 µg/m3 10.57 µg/m3 0.25 mg/m3 16.14 °C 92.98 % 1,000.03 mbar 3.52 m/s 44.07 Deg -0.14 µg/m3
2023-05-09 01:00 3.5 µg/m3 1.7 µg/m3 22.28 µg/m3 12.09 µg/m3 0.27 mg/m3 16.09 °C 95.29 % 1,001.88 mbar 2.02 m/s 38.8 Deg -0.27 µg/m3
2023-05-09 00:00 10.12 µg/m3 1.63 µg/m3 25.45 µg/m3 13.63 µg/m3 0.28 mg/m3 16.3 °C 95.21 % 1,002.50 mbar 1.29 m/s 107.85 Deg -0.1 µg/m3
2023-05-08 23:00 7.88 µg/m3 1.95 µg/m3 24.64 µg/m3 12.84 µg/m3 0.3 mg/m3 16.36 °C 94.57 % 1,003.09 mbar 1.35 m/s 47.19 Deg -0.23 µg/m3
2023-05-08 22:00 5.58 µg/m3 1.27 µg/m3 24.58 µg/m3 12.32 µg/m3 0.31 mg/m3 17.04 °C 92.38 % 1,004.41 mbar 1.25 m/s 116.11 Deg -0.06 µg/m3
2023-05-08 21:00 7.42 µg/m3 1.55 µg/m3 22.48 µg/m3 12.02 µg/m3 0.32 mg/m3 17.15 °C 91.12 % 1,002.95 mbar 2.01 m/s 46.5 Deg -0.43 µg/m3
2023-05-08 20:00 13.08 µg/m3 1.35 µg/m3 22.44 µg/m3 11.02 µg/m3 0.35 mg/m3 17.28 °C 88.15 % 1,002.87 mbar 1.44 m/s 48.04 Deg 0.23 µg/m3
2023-05-08 19:00 11.21 µg/m3 1.82 µg/m3 20.99 µg/m3 9.97 µg/m3 0.37 mg/m3 17.78 °C 84 % 1,002.37 mbar 2.05 m/s 51.48 Deg -0.04 µg/m3
2023-05-08 18:00 12.24 µg/m3 1.69 µg/m3 24.75 µg/m3 9.92 µg/m3 0.41 mg/m3 18.33 °C 79.63 % 1,002.26 mbar 2.28 m/s 58.27 Deg 0.57 µg/m3
2023-05-08 17:00 13.29 µg/m3 1.38 µg/m3 26.02 µg/m3 9.41 µg/m3 0.43 mg/m3 18.6 °C 75.97 % 1,002.42 mbar 2.57 m/s 60.93 Deg 0.55 µg/m3
2023-05-08 16:00 11.65 µg/m3 1.38 µg/m3 21.35 µg/m3 8.92 µg/m3 0.46 mg/m3 18.92 °C 75.65 % 1,002.27 mbar 2.96 m/s 56.43 Deg 1.19 µg/m3
2023-05-08 15:00 13.97 µg/m3 1.17 µg/m3 20.22 µg/m3 9.15 µg/m3 0.51 mg/m3 18.44 °C 80.1 % 1,002.04 mbar 3.52 m/s 64.1 Deg 0.67 µg/m3
2023-05-08 14:00 8.69 µg/m3 0.69 µg/m3 19.18 µg/m3 8.96 µg/m3 0.57 mg/m3 18.35 °C 84.32 % 1,002.23 mbar 4.1 m/s 56.97 Deg 1.06 µg/m3
2023-05-08 13:00 9.38 µg/m3 -0.08 µg/m3 19.74 µg/m3 9.23 µg/m3 0.69 mg/m3 18.27 °C 84.33 % 1,003.93 mbar 3.22 m/s 58.98 Deg 1.5 µg/m3
2023-05-08 12:00 10.25 µg/m3 -0.19 µg/m3 22.7 µg/m3 10.23 µg/m3 0.93 mg/m3 18.52 °C 83.5 % 1,006.69 mbar 1.48 m/s 43.93 Deg 1.14 µg/m3
2023-05-08 11:00 1.47 µg/m3 5.11 µg/m3 24.97 µg/m3 10.13 µg/m3 1.89 mg/m3 18.75 °C 80.11 % 1,005.95 mbar 2.15 m/s 54.96 Deg 15.71 µg/m3
2023-05-08 10:00 -1.24 µg/m3 15.67 µg/m3 µg/m3 µg/m3 3.43 mg/m3 19.49 °C 76.14 % 1,005.64 mbar 2.61 m/s 43.36 Deg 93.69 µg/m3

It is to be noted that the data is provisional and subject to quality assurance procedures. For validated data kindly refer your request to contact.air@era.org.mt